Archival Weather

Kayes/Dag-Dag

Kayes/Dag-Dag, Mali (GAKD)

Report from: Thursday, September 21, 2023 9:00 AM UTC
Current time: Friday, February 23, 2024 8:58 PM UTC

Current weather – Weather history – Daily summaries
Weather forecast

Temperature25.0°C (77.0°F)
Dew point22.0°C (71.6°F)
Winds 2 kts (1 m/s, 2.3 mph) Vrb
Winds variableWinds variable
Visibility6.2 mi. (10 km)
Clouds Scattered clouds 2,000 ft. (610 m)
Altimeter30.00 in.Hg (1016 mB)
Relative humidity83 %
Density altitude1,421 ft. (433 m)
Flight conditions Visual Meteorological Conditions
Raw dataGAKD 210900Z VRB02KT 9999 SCT020 25/22 Q1016
An error has occurred. This application may no longer respond until reloaded. Reload 🗙